Time;durP1;ratioP1;P1;durP2;ratioP2;P2;SDS_P1;SDS_P2;PMS_P1;PMS_P2;Temp;Humidity;BMP_temperature;BMP_pressure;BME280_temperature;BME280_humidity;BME280_pressure;Samples;Min_cycle;Max_cycle;Signal;HPM_P1;HPM_P2
2023/12/14 00:02:04;;;;;;;33.78;13.90;;;;;;;4.78;100.00;99637.34;5060611;28;20265;-76
2023/12/14 00:04:29;;;;;;;7.72;2.78;;;;;;;4.66;100.00;99614.72;5061599;28;20119;-78
2023/12/14 00:06:54;;;;;;;3.80;3.60;;;;;;;4.15;100.00;99527.56;5066412;28;20024;-80
2023/12/14 00:09:20;;;;;;;0.85;0.80;;;;;;;4.04;100.00;99511.84;5065406;28;20544;-77
2023/12/14 00:11:45;;;;;;;12.48;11.63;;;;;;;4.48;100.00;99612.75;5063249;28;20060;-78
2023/12/14 00:14:11;;;;;;;2.22;2.05;;;;;;;4.51;100.00;99636.16;5064765;28;20051;-77
2023/12/14 00:16:36;;;;;;;2.20;2.10;;;;;;;4.21;100.00;99567.44;5053944;28;20056;-79
2023/12/14 00:19:02;;;;;;;2.15;2.05;;;;;;;4.59;100.00;99644.94;5061951;28;20052;-79
2023/12/14 00:21:28;;;;;;;16.25;15.07;;;;;;;4.34;100.00;99590.97;5062593;28;20051;-78
2023/12/14 00:23:53;;;;;;;0.90;0.90;;;;;;;4.17;100.00;99549.22;5060407;28;20052;-79
2023/12/14 00:26:20;;;;;;;1.40;1.27;;;;;;;4.50;100.00;99598.06;5050656;28;20060;-78
2023/12/14 00:28:47;;;;;;;10.07;9.07;;;;;;;4.54;100.00;99606.75;5039331;28;20389;-78
2023/12/14 00:31:13;;;;;;;12.07;11.43;;;;;;;4.47;100.00;99594.56;5061440;28;20046;-77
2023/12/14 00:33:38;;;;;;;2.65;2.10;;;;;;;3.96;100.00;99508.31;5059093;28;20056;-78
2023/12/14 00:36:04;;;;;;;0.80;0.80;;;;;;;4.24;100.00;99610.75;5061713;28;20056;-78
2023/12/14 00:38:30;;;;;;;0.85;0.80;;;;;;;2.92;100.00;99376.44;5060729;28;20236;-77
2023/12/14 00:40:55;;;;;;;0.52;0.52;;;;;;;4.30;100.00;99634.19;5061488;28;20041;-77
2023/12/14 00:43:21;;;;;;;1.35;1.25;;;;;;;3.90;100.00;99558.38;5054901;28;20051;-79
2023/12/14 00:45:46;;;;;;;8.50;7.75;;;;;;;4.34;100.00;99625.59;5056044;28;20190;-78
2023/12/14 00:48:12;;;;;;;1.67;1.30;;;;;;;4.33;100.00;99623.84;5059284;28;20048;-78
2023/12/14 00:50:38;;;;;;;32.85;17.42;;;;;;;3.81;100.00;99540.09;5048534;28;20765;-77
2023/12/14 00:53:03;;;;;;;2.05;1.95;;;;;;;3.45;100.00;99463.56;5050286;28;20056;-77
2023/12/14 00:55:28;;;;;;;2.20;1.85;;;;;;;3.54;100.00;99510.38;5064438;28;20047;-78
2023/12/14 00:57:54;;;;;;;10.77;9.57;;;;;;;3.72;100.00;99527.91;5061226;28;20032;-78
2023/12/14 01:00:20;;;;;;;5.90;5.53;;;;;;;4.02;100.00;99552.47;5060736;28;20155;-78
2023/12/14 01:02:45;;;;;;;6.72;6.18;;;;;;;4.03;100.00;99624.31;5056679;28;20113;-81
2023/12/14 01:05:11;;;;;;;2.28;2.17;;;;;;;3.86;100.00;99555.72;5058930;28;20503;-78
2023/12/14 01:07:36;;;;;;;0.30;0.30;;;;;;;4.11;100.00;99619.22;5054528;28;20163;-78
2023/12/14 01:10:02;;;;;;;2.95;2.80;;;;;;;3.75;100.00;99576.38;5062977;28;20107;-80
2023/12/14 01:12:28;;;;;;;1.30;1.20;;;;;;;3.58;100.00;99543.28;5064603;28;20053;-80
2023/12/14 01:14:53;;;;;;;2.75;2.65;;;;;;;4.26;100.00;99652.28;5058489;28;20051;-79
2023/12/14 01:17:19;;;;;;;6.30;5.90;;;;;;;4.20;100.00;99651.38;5063175;28;20396;-77
2023/12/14 01:19:45;;;;;;;3.42;3.22;;;;;;;3.68;100.00;99556.38;5061981;28;20104;-79
2023/12/14 01:22:10;;;;;;;3.05;2.85;;;;;;;3.43;100.00;99570.69;5063563;28;20032;-79
2023/12/14 01:24:36;;;;;;;9.27;8.85;;;;;;;3.19;100.00;99499.50;5061287;28;20097;-79
2023/12/14 01:27:02;;;;;;;0.85;0.65;;;;;;;3.52;100.00;99550.09;5064489;28;20091;-80
2023/12/14 01:29:28;;;;;;;4.32;4.10;;;;;;;3.57;100.00;99546.69;5063742;28;20048;-78
2023/12/14 01:31:53;;;;;;;2.55;2.35;;;;;;;3.33;100.00;99510.94;5060823;28;20048;-80
2023/12/14 01:34:19;;;;;;;4.82;4.53;;;;;;;3.60;100.00;99556.25;5037754;28;20119;-79
2023/12/14 01:36:44;;;;;;;8.77;8.15;;;;;;;3.80;100.00;99564.31;5064409;28;20036;-81
2023/12/14 01:39:10;;;;;;;8.82;8.30;;;;;;;4.17;100.00;99624.50;5064860;28;20136;-76
2023/12/14 01:41:35;;;;;;;3.13;2.83;;;;;;;3.54;100.00;99532.84;5059533;28;20050;-77
2023/12/14 01:44:01;;;;;;;2.22;2.05;;;;;;;3.46;100.00;99539.63;5056643;28;20053;-76
2023/12/14 01:46:26;;;;;;;7.03;6.70;;;;;;;4.02;100.00;99640.72;5057099;28;20496;-77
2023/12/14 01:48:52;;;;;;;3.50;3.20;;;;;;;3.97;100.00;99621.63;5061693;28;20495;-78
2023/12/14 01:51:18;;;;;;;4.65;4.22;;;;;;;4.01;100.00;99615.66;5065983;28;20155;-77
2023/12/14 01:53:44;;;;;;;6.82;6.43;;;;;;;4.07;100.00;99625.22;5063963;28;20052;-78
2023/12/14 01:56:10;;;;;;;0.40;0.40;;;;;;;3.45;100.00;99523.19;5058401;28;20045;-78
2023/12/14 01:58:35;;;;;;;3.03;2.83;;;;;;;3.70;100.00;99615.22;5063974;28;20063;-77
2023/12/14 02:01:15;;;;;;;3.75;3.55;;;;;;;3.89;100.00;99633.66;5060052;28;20098;-77
2023/12/14 02:03:45;;;;;;;7.53;7.13;;;;;;;3.91;100.00;99622.44;5057134;28;20555;-78
2023/12/14 02:06:10;;;;;;;3.65;3.40;;;;;;;3.44;100.00;99544.81;5060232;28;20079;-79
2023/12/14 02:08:36;;;;;;;3.17;2.97;;;;;;;3.91;100.00;99621.53;5060483;28;20484;-79
2023/12/14 02:11:02;;;;;;;3.33;3.13;;;;;;;3.52;100.00;99542.31;5058048;28;20072;-81
2023/12/14 02:13:29;;;;;;;5.32;5.03;;;;;;;3.71;100.00;99593.59;5058516;28;20032;-76
2023/12/14 02:15:55;;;;;;;11.68;2.72;;;;;;;3.54;100.00;99577.78;5058160;28;20500;-78
2023/12/14 02:18:20;;;;;;;4.03;3.67;;;;;;;3.68;100.00;99616.91;5058947;28;20051;-78
2023/12/14 02:20:46;;;;;;;7.85;7.22;;;;;;;3.19;100.00;99525.41;5059347;28;20121;-78
2023/12/14 02:23:11;;;;;;;1.85;1.55;;;;;;;3.36;100.00;99525.66;5060503;28;20543;-81
2023/12/14 02:25:37;;;;;;;1.40;1.30;;;;;;;3.79;100.00;99604.06;5043229;28;20129;-80
2023/12/14 02:28:03;;;;;;;2.78;2.58;;;;;;;3.83;100.00;99618.84;5065651;28;20037;-83
2023/12/14 02:30:28;;;;;;;2.30;2.20;;;;;;;3.77;100.00;99603.22;5067452;28;20111;-81
2023/12/14 02:32:54;;;;;;;7.95;6.80;;;;;;;3.85;100.00;99621.47;5067983;28;20265;-78
2023/12/14 02:35:20;;;;;;;2.28;2.17;;;;;;;3.37;100.00;99525.69;5061418;28;20082;-80
2023/12/14 02:37:46;;;;;;;1.73;1.63;;;;;;;3.68;100.00;99618.63;5077024;28;20484;-80
2023/12/14 02:40:11;;;;;;;9.20;8.70;;;;;;;3.73;100.00;99630.81;5063548;28;20135;-79
2023/12/14 02:42:37;;;;;;;3.33;3.08;;;;;;;3.75;100.00;99610.97;5046418;28;20588;-79
2023/12/14 02:45:03;;;;;;;11.18;7.78;;;;;;;3.32;100.00;99521.28;5058228;28;20052;-80
2023/12/14 02:47:29;;;;;;;3.30;3.03;;;;;;;3.92;100.00;99631.09;5064012;28;20926;-79
2023/12/14 02:49:55;;;;;;;1.55;1.45;;;;;;;3.73;100.00;99615.25;5064957;28;20762;-78
2023/12/14 02:52:21;;;;;;;2.10;1.98;;;;;;;2.99;100.00;99506.09;5060479;28;20549;-78
2023/12/14 02:54:46;;;;;;;7.65;7.05;;;;;;;3.29;100.00;99541.97;5068681;28;20040;-78
2023/12/14 02:57:12;;;;;;;6.10;5.57;;;;;;;3.58;100.00;99587.38;5062899;28;20730;-80
2023/12/14 02:59:37;;;;;;;3.60;3.25;;;;;;;3.80;100.00;99611.03;5063842;28;20053;-76
2023/12/14 03:02:03;;;;;;;2.03;1.92;;;;;;;3.49;100.00;99531.88;5065591;28;20485;-76
2023/12/14 03:04:28;;;;;;;1.55;1.45;;;;;;;3.38;100.00;99523.97;5062778;28;20036;-79
2023/12/14 03:06:55;;;;;;;1.65;1.55;;;;;;;3.22;100.00;99504.72;5064375;28;20036;-78
2023/12/14 03:09:21;;;;;;;1.48;1.38;;;;;;;3.20;100.00;99488.25;5066507;28;20179;-79
2023/12/14 03:11:46;;;;;;;2.67;2.58;;;;;;;3.42;100.00;99527.44;5065689;28;20139;-79
2023/12/14 03:14:12;;;;;;;9.45;8.80;;;;;;;3.93;100.00;99607.75;5062557;28;20037;-78
2023/12/14 03:16:37;;;;;;;8.63;8.05;;;;;;;3.54;100.00;99533.69;5067367;28;20083;-81
2023/12/14 03:19:05;;;;;;;8.20;7.88;;;;;;;3.95;100.00;99585.28;5075793;28;20075;-78
2023/12/14 03:21:30;;;;;;;28.92;18.08;;;;;;;3.98;100.00;99597.41;5068306;28;20043;-77
2023/12/14 03:23:56;;;;;;;2.67;2.58;;;;;;;3.97;100.00;99612.13;5062871;28;20476;-78
2023/12/14 03:26:23;;;;;;;2.45;2.25;;;;;;;3.96;100.00;99601.75;5065936;28;20578;-78
2023/12/14 03:28:48;;;;;;;1.33;1.30;;;;;;;3.97;100.00;99604.34;5063485;28;20768;-79
2023/12/14 03:31:14;;;;;;;5.65;5.40;;;;;;;4.12;100.00;99607.97;5064988;28;20028;-79
2023/12/14 03:33:40;;;;;;;4.00;3.65;;;;;;;3.67;100.00;99513.13;5066750;28;20143;-80
2023/12/14 03:36:06;;;;;;;7.80;6.75;;;;;;;4.00;100.00;99561.97;5061781;28;20682;-77
2023/12/14 03:38:33;;;;;;;17.48;11.35;;;;;;;3.56;100.00;99487.06;5064030;28;20059;-78
2023/12/14 03:40:58;;;;;;;1.50;1.40;;;;;;;3.61;100.00;99495.75;5064935;28;20086;-77
2023/12/14 03:43:24;;;;;;;3.30;3.17;;;;;;;3.17;100.00;99464.91;5064450;28;20029;-78
2023/12/14 03:45:49;;;;;;;3.70;3.50;;;;;;;3.83;100.00;99579.06;5066171;28;20028;-77
2023/12/14 03:48:15;;;;;;;5.97;5.68;;;;;;;3.69;100.00;99527.84;5064842;28;20048;-78
2023/12/14 03:50:40;;;;;;;7.72;7.03;;;;;;;4.11;100.00;99611.44;5065441;28;20053;-77
2023/12/14 03:53:06;;;;;;;1.25;1.15;;;;;;;3.75;100.00;99553.00;5064364;28;20045;-77
2023/12/14 03:55:32;;;;;;;4.05;3.75;;;;;;;3.76;100.00;99521.00;5036645;28;20039;-79
2023/12/14 03:57:58;;;;;;;1.25;1.15;;;;;;;3.93;100.00;99527.31;5046876;28;20511;-79
2023/12/14 04:00:24;;;;;;;2.25;2.15;;;;;;;4.25;100.00;99586.53;5056743;28;20155;-80
2023/12/14 04:02:49;;;;;;;4.22;3.95;;;;;;;3.49;100.00;99477.41;5059012;28;20047;-77
2023/12/14 04:05:15;;;;;;;5.47;4.95;;;;;;;3.71;100.00;99502.78;5058619;28;20409;-76
2023/12/14 04:07:40;;;;;;;1.55;1.45;;;;;;;4.21;100.00;99588.22;5047779;28;20118;-78
2023/12/14 04:10:10;;;;;;;11.10;10.00;;;;;;;4.23;100.00;99586.50;5043913;28;20055;-77
2023/12/14 04:12:36;;;;;;;2.28;2.17;;;;;;;4.26;100.00;99597.75;5065290;28;20194;-79
2023/12/14 04:15:03;;;;;;;1.27;1.20;;;;;;;4.19;100.00;99618.47;5064628;28;20055;-78
2023/12/14 04:17:28;;;;;;;1.90;1.80;;;;;;;3.55;100.00;99503.44;5065606;28;20137;-78
2023/12/14 04:19:54;;;;;;;40.97;35.33;;;;;;;3.64;100.00;99515.69;5064398;28;20051;-79
2023/12/14 04:22:19;;;;;;;1.67;1.58;;;;;;;4.19;100.00;99615.88;5043334;28;20037;-79
2023/12/14 04:24:45;;;;;;;5.72;5.43;;;;;;;4.08;100.00;99591.50;5064714;28;20047;-79
2023/12/14 04:27:10;;;;;;;1.48;1.38;;;;;;;3.59;100.00;99519.06;5064797;28;20052;-79
2023/12/14 04:29:36;;;;;;;1.30;1.25;;;;;;;4.12;100.00;99600.19;5064787;28;20119;-79
2023/12/14 04:32:02;;;;;;;6.20;5.85;;;;;;;4.11;100.00;99599.31;5048108;28;20052;-77
2023/12/14 04:34:27;;;;;;;3.65;3.45;;;;;;;3.99;100.00;99615.59;5054255;28;20365;-77
2023/12/14 04:36:57;;;;;;;2.95;2.78;;;;;;;3.56;100.00;99490.50;5065748;28;20720;-77
2023/12/14 04:39:24;;;;;;;10.05;9.45;;;;;;;3.91;100.00;99515.13;5062236;28;20493;-77
2023/12/14 04:41:50;;;;;;;1.30;1.15;;;;;;;4.37;100.00;99604.84;5064651;28;20133;-79
2023/12/14 04:44:15;;;;;;;2.58;2.47;;;;;;;4.05;100.00;99555.13;5059117;28;20095;-79
2023/12/14 04:46:41;;;;;;;96.13;34.17;;;;;;;3.85;100.00;99520.28;5063618;28;20053;-80
2023/12/14 04:49:06;;;;;;;11.75;8.10;;;;;;;3.84;100.00;99563.53;5057373;28;20362;-79
2023/12/14 04:51:32;;;;;;;0.98;0.93;;;;;;;3.88;100.00;99522.88;5062600;28;20474;-79
2023/12/14 04:53:57;;;;;;;0.98;0.88;;;;;;;3.90;100.00;99537.63;5065024;28;20044;-80
2023/12/14 04:56:23;;;;;;;6.93;6.50;;;;;;;4.20;100.00;99589.06;5068771;28;20115;-79
2023/12/14 04:58:48;;;;;;;8.20;3.53;;;;;;;3.43;100.00;99508.47;5060362;28;20041;-77
2023/12/14 05:01:14;;;;;;;1.85;1.75;;;;;;;3.50;100.00;99521.53;5072806;28;20077;-78
2023/12/14 05:03:40;;;;;;;36.67;21.45;;;;;;;4.13;100.00;99607.16;5061369;28;20110;-79
2023/12/14 05:06:07;;;;;;;7.60;6.95;;;;;;;3.73;100.00;99500.22;5046146;28;20053;-77
2023/12/14 05:08:32;;;;;;;29.33;10.70;;;;;;;3.32;100.00;99482.38;5061071;28;20048;-78
2023/12/14 05:10:58;;;;;;;2.80;1.95;;;;;;;3.69;100.00;99540.81;5056959;28;20055;-77
2023/12/14 05:13:26;;;;;;;2.53;2.42;;;;;;;4.02;100.00;99623.44;5064280;28;20090;-76
2023/12/14 05:15:52;;;;;;;10.48;9.73;;;;;;;4.22;100.00;99620.25;5054651;28;20080;-78
2023/12/14 05:18:17;;;;;;;11.10;6.85;;;;;;;4.00;100.00;99593.13;5061730;28;20094;-77
2023/12/14 05:20:45;;;;;;;3.55;3.35;;;;;;;4.18;100.00;99601.16;5058192;28;20049;-76
2023/12/14 05:23:11;;;;;;;3.55;3.33;;;;;;;4.10;100.00;99565.56;5057873;28;20465;-77
2023/12/14 05:25:36;;;;;;;4.85;4.43;;;;;;;4.10;100.00;99566.44;5057221;28;20068;-76
2023/12/14 05:28:02;;;;;;;4.28;2.33;;;;;;;4.15;100.00;99569.09;5058331;28;20041;-79
2023/12/14 05:30:29;;;;;;;4.15;3.95;;;;;;;4.32;100.00;99587.47;5058114;28;20048;-77
2023/12/14 05:32:55;;;;;;;8.15;7.68;;;;;;;4.29;100.00;99590.03;5061131;28;20041;-77
2023/12/14 05:35:22;;;;;;;3.05;2.95;;;;;;;4.13;100.00;99566.47;5042136;28;20049;-78
2023/12/14 05:37:48;;;;;;;1.50;1.40;;;;;;;3.76;100.00;99495.94;5062951;28;20052;-77
2023/12/14 05:40:14;;;;;;;9.95;8.98;;;;;;;4.12;100.00;99551.75;5060293;28;20106;-76
2023/12/14 05:42:41;;;;;;;12.23;8.32;;;;;;;4.17;100.00;99531.03;5067311;28;20105;-77
2023/12/14 05:45:07;;;;;;;6.05;2.55;;;;;;;3.84;100.00;99503.84;5063198;28;20131;-78
2023/12/14 05:47:34;;;;;;;5.15;4.55;;;;;;;3.84;100.00;99480.47;5061609;28;20047;-79
2023/12/14 05:50:04;;;;;;;26.02;15.68;;;;;;;4.14;100.00;99526.66;5036679;28;20044;-79
2023/12/14 05:52:29;;;;;;;4.22;4.03;;;;;;;4.40;100.00;99583.22;5054577;28;20036;-77
2023/12/14 05:54:55;;;;;;;9.18;8.50;;;;;;;4.39;100.00;99576.28;5044945;28;20063;-80
2023/12/14 05:57:21;;;;;;;7.63;6.80;;;;;;;3.93;100.00;99470.22;5056125;28;20059;-78
2023/12/14 05:59:46;;;;;;;5.82;5.50;;;;;;;4.49;100.00;99566.88;5065472;28;20143;-79
2023/12/14 06:02:12;;;;;;;6.57;6.18;;;;;;;4.17;100.00;99520.66;5064285;28;20048;-79
2023/12/14 06:04:38;;;;;;;31.00;29.23;;;;;;;4.48;100.00;99566.00;5059299;28;20044;-78
2023/12/14 06:07:03;;;;;;;6.03;5.72;;;;;;;4.08;100.00;99502.38;5063883;28;20070;-79
2023/12/14 06:09:35;;;;;;;8.25;7.80;;;;;;;4.69;100.00;99601.75;5063775;28;20053;-78
2023/12/14 06:12:04;;;;;;;4.00;3.78;;;;;;;4.69;100.00;99582.69;5056845;28;20404;-77
2023/12/14 06:14:30;;;;;;;4.95;4.65;;;;;;;4.15;100.00;99480.81;5058204;28;20060;-73
2023/12/14 06:16:56;;;;;;;0.38;0.38;;;;;;;4.13;100.00;99478.19;5057125;28;20459;-73
2023/12/14 06:19:22;;;;;;;4.75;3.45;;;;;;;4.70;100.00;99568.81;5058510;28;20396;-73
2023/12/14 06:21:48;;;;;;;4.18;3.97;;;;;;;4.59;100.00;99555.75;5060803;28;20037;-70
2023/12/14 06:24:13;;;;;;;2.70;2.50;;;;;;;4.80;100.00;99622.63;5056016;28;20051;-72
2023/12/14 06:26:45;;;;;;;2.90;2.72;;;;;;;4.86;100.00;99615.75;5057209;28;20052;-71
2023/12/14 06:29:11;;;;;;;3.95;3.75;;;;;;;4.25;100.00;99518.16;5057710;28;20072;-72
2023/12/14 06:31:38;;;;;;;1.20;1.10;;;;;;;4.13;100.00;99514.56;5053548;28;20388;-71
2023/12/14 06:34:04;;;;;;;7.60;7.13;;;;;;;4.22;100.00;99518.97;5039601;28;20040;-71
2023/12/14 06:36:33;;;;;;;5.28;4.97;;;;;;;4.17;100.00;99510.28;5057526;28;20055;-73
2023/12/14 06:38:59;;;;;;;2.42;2.25;;;;;;;4.97;100.00;99615.88;5056267;28;20045;-70
2023/12/14 06:41:27;;;;;;;2.05;1.67;;;;;;;4.92;100.00;99578.59;5057534;28;20057;-71
2023/12/14 06:43:53;;;;;;;4.32;4.10;;;;;;;4.65;100.00;99553.19;5061481;28;20381;-73
2023/12/14 06:46:20;;;;;;;7.40;6.97;;;;;;;4.88;100.00;99594.13;5040492;28;20138;-73
2023/12/14 06:48:45;;;;;;;37.25;10.43;;;;;;;5.06;100.00;99631.56;5056897;28;20075;-71
2023/12/14 06:51:11;;;;;;;7.43;7.05;;;;;;;4.70;100.00;99537.66;5040147;28;20132;-72
2023/12/14 06:53:40;;;;;;;19.80;18.45;;;;;;;4.67;100.00;99516.84;5060942;28;20123;-71
2023/12/14 06:56:09;;;;;;;0.95;0.88;;;;;;;4.58;100.00;99486.44;5061347;28;20353;-71
2023/12/14 06:58:35;;;;;;;16.73;14.10;;;;;;;4.60;100.00;99489.91;5060621;28;20076;-72
2023/12/14 07:01:01;;;;;;;9.63;4.90;;;;;;;4.33;100.00;99413.50;5059463;28;20087;-72
2023/12/14 07:03:26;;;;;;;3.30;1.65;;;;;;;4.83;100.00;99498.78;5053649;28;20464;-72
2023/12/14 07:05:52;;;;;;;7.60;3.67;;;;;;;5.32;100.00;99588.47;5059752;28;20575;-73
2023/12/14 07:08:17;;;;;;;7.53;2.47;;;;;;;5.16;100.00;99600.47;5059245;28;20764;-72
2023/12/14 07:10:43;;;;;;;2.42;2.28;;;;;;;5.14;100.00;99564.03;5058598;28;20045;-72
2023/12/14 07:13:08;;;;;;;0.60;0.50;;;;;;;5.11;100.00;99537.16;5046867;28;20039;-72
2023/12/14 07:15:34;;;;;;;3.15;2.20;;;;;;;5.03;100.00;99498.06;5056855;28;20523;-72
2023/12/14 07:17:59;;;;;;;14.63;11.88;;;;;;;5.02;100.00;99511.94;5044730;28;20124;-73
2023/12/14 07:20:25;;;;;;;3.35;3.13;;;;;;;5.14;100.00;99530.22;5055687;28;20135;-72
2023/12/14 07:22:50;;;;;;;7.10;5.50;;;;;;;5.18;100.00;99523.34;5060608;28;20037;-72
2023/12/14 07:25:16;;;;;;;15.15;13.90;;;;;;;5.25;100.00;99549.38;5061813;28;20209;-76
2023/12/14 07:27:42;;;;;;;2.63;2.42;;;;;;;5.70;100.00;99613.00;5059208;28;20024;-71
2023/12/14 07:30:10;;;;;;;4.90;4.57;;;;;;;5.49;100.00;99600.72;5065394;28;20140;-71
2023/12/14 07:32:36;;;;;;;6.50;6.15;;;;;;;5.49;100.00;99584.25;5061685;28;20037;-72
2023/12/14 07:35:01;;;;;;;3.38;3.17;;;;;;;5.75;100.00;99620.84;5064410;28;20130;-72
2023/12/14 07:37:27;;;;;;;1.95;1.83;;;;;;;5.79;100.00;99601.78;5063670;28;20495;-73
2023/12/14 07:39:52;;;;;;;4.30;4.00;;;;;;;5.39;100.00;99531.28;5045240;28;20033;-73
2023/12/14 07:42:20;;;;;;;1.40;1.30;;;;;;;6.00;100.00;99590.66;5046495;28;20174;-72
2023/12/14 07:44:46;;;;;;;5.70;5.40;;;;;;;6.11;100.00;99609.81;5057127;28;20400;-72
2023/12/14 07:47:12;;;;;;;6.55;6.10;;;;;;;6.36;100.00;99622.94;5061005;28;20056;-71
2023/12/14 07:49:37;;;;;;;0.77;0.75;;;;;;;5.87;100.00;99528.94;5063343;28;20466;-73
2023/12/14 07:52:03;;;;;;;2.10;2.00;;;;;;;6.42;100.00;99617.75;5064153;28;20464;-73
2023/12/14 07:54:29;;;;;;;4.68;4.35;;;;;;;6.40;100.00;99623.84;5059747;28;20044;-73
2023/12/14 07:56:54;;;;;;;17.27;15.98;;;;;;;6.43;100.00;99614.28;5062207;28;20045;-71
2023/12/14 07:59:20;;;;;;;6.63;6.22;;;;;;;6.08;100.00;99529.03;5063373;28;20131;-70
2023/12/14 08:01:46;;;;;;;1.30;1.20;;;;;;;6.15;100.00;99498.69;5068701;28;20048;-73
2023/12/14 08:04:12;;;;;;;5.30;5.00;;;;;;;6.32;100.00;99503.94;5069516;28;20037;-72
2023/12/14 08:06:40;;;;;;;1.58;1.48;;;;;;;6.49;100.00;99493.56;5066369;28;20058;-72
2023/12/14 08:09:06;;;;;;;4.50;4.20;;;;;;;7.14;100.00;99604.91;5057553;28;20140;-73
2023/12/14 08:11:32;;;;;;;3.72;3.50;;;;;;;6.75;100.00;99517.06;5065362;28;20484;-73
2023/12/14 08:13:58;;;;;;;7.97;7.40;;;;;;;7.20;100.00;99577.94;5046845;28;20409;-72
2023/12/14 08:16:24;;;;;;;0.82;0.73;;;;;;;7.01;100.00;99505.78;5064891;28;20750;-71
2023/12/14 08:18:49;;;;;;;0.98;0.98;;;;;;;7.61;100.00;99580.53;5047647;28;20033;-72
2023/12/14 08:21:15;;;;;;;3.30;3.10;;;;;;;7.68;100.00;99567.44;5064364;28;20079;-72
2023/12/14 08:23:42;;;;;;;2.50;2.38;;;;;;;7.37;100.00;99507.47;5062111;28;20131;-72
2023/12/14 08:26:09;;;;;;;3.03;1.90;;;;;;;7.37;100.00;99486.59;5063633;28;20041;-72
2023/12/14 08:28:35;;;;;;;6.03;5.68;;;;;;;7.95;100.00;99566.50;5067800;28;20170;-73
2023/12/14 08:31:02;;;;;;;2.22;2.13;;;;;;;7.71;100.00;99500.44;5065671;28;20029;-72
2023/12/14 08:33:31;;;;;;;1.25;1.15;;;;;;;7.73;100.00;99488.25;5066237;28;20142;-73
2023/12/14 08:35:57;;;;;;;1.23;1.20;;;;;;;8.31;100.00;99586.44;5057888;28;20041;-74
2023/12/14 08:38:24;;;;;;;4.65;4.25;;;;;;;7.85;100.00;99525.63;5064036;28;20048;-73
2023/12/14 08:40:50;;;;;;;1.75;1.65;;;;;;;8.41;100.00;99611.69;5066935;28;20052;-72
2023/12/14 08:43:16;;;;;;;4.78;2.72;;;;;;;8.19;100.00;99582.13;5054420;28;20040;-72
2023/12/14 08:45:42;;;;;;;1.80;1.73;;;;;;;7.66;100.00;99550.94;5067347;28;20036;-73
2023/12/14 08:48:07;;;;;;;5.68;4.22;;;;;;;8.10;100.00;99644.88;5068486;28;20077;-72
2023/12/14 08:50:33;;;;;;;0.85;0.85;;;;;;;7.96;100.00;99610.03;5062021;28;20036;-72
2023/12/14 08:52:59;;;;;;;0.73;0.73;;;;;;;7.63;100.00;99557.00;5061402;28;20455;-71
2023/12/14 08:55:25;;;;;;;4.70;4.45;;;;;;;7.47;100.00;99561.41;5063276;28;20049;-72
2023/12/14 08:57:51;;;;;;;0.47;0.47;;;;;;;7.27;100.00;99556.19;5045984;28;20082;-71
2023/12/14 09:00:17;;;;;;;2.55;2.40;;;;;;;7.48;100.00;99563.13;5075335;28;20048;-72
2023/12/14 09:02:45;;;;;;;3.63;3.42;;;;;;;7.42;100.00;99529.19;5060822;28;20052;-72
2023/12/14 09:05:12;;;;;;;15.45;14.65;;;;;;;7.44;100.00;99534.44;5062979;28;20059;-72
2023/12/14 09:07:38;;;;;;;1.17;1.17;;;;;;;7.39;100.00;99542.25;5067536;28;20044;-74
2023/12/14 09:10:04;;;;;;;23.90;10.65;;;;;;;7.81;100.00;99629.22;5065372;28;20486;-71
2023/12/14 09:12:30;;;;;;;1.08;1.05;;;;;;;7.32;100.00;99532.69;5067894;28;20040;-72
2023/12/14 09:14:55;;;;;;;1.52;1.42;;;;;;;7.72;100.00;99629.25;5060686;28;20086;-72
2023/12/14 09:17:21;;;;;;;3.25;3.15;;;;;;;7.77;100.00;99610.09;5067003;28;20052;-71
2023/12/14 09:19:47;;;;;;;14.13;12.77;;;;;;;7.59;100.00;99607.50;5059646;28;20052;-72
2023/12/14 09:22:12;;;;;;;27.50;21.35;;;;;;;7.77;100.00;99617.94;5063462;28;20036;-73
2023/12/14 09:24:38;;;;;;;9.15;8.45;;;;;;;8.02;100.00;99597.84;5045694;28;20130;-72
2023/12/14 09:27:03;;;;;;;10.23;9.32;;;;;;;8.16;100.00;99600.41;5064140;28;20054;-73
2023/12/14 09:29:29;;;;;;;1.50;1.40;;;;;;;8.35;100.00;99600.34;5066088;28;20066;-72
2023/12/14 09:31:54;;;;;;;0.40;0.40;;;;;;;7.69;100.00;99511.75;5061629;28;20045;-74
2023/12/14 09:34:20;;;;;;;4.38;1.67;;;;;;;8.27;100.00;99612.59;5068668;28;20047;-72
2023/12/14 09:36:45;;;;;;;30.95;20.00;;;;;;;7.74;100.00;99536.09;5071869;28;20064;-72
2023/12/14 09:39:11;;;;;;;9.40;8.40;;;;;;;8.21;100.00;99610.84;5067317;28;20059;-73
2023/12/14 09:41:38;;;;;;;3.05;2.03;;;;;;;8.21;100.00;99608.22;5067852;28;20079;-73
2023/12/14 09:44:05;;;;;;;1.40;1.30;;;;;;;7.97;100.00;99556.94;5068250;28;20068;-73
2023/12/14 09:46:32;;;;;;;1.08;0.98;;;;;;;8.22;100.00;99568.19;5059798;28;20433;-73
2023/12/14 09:48:59;;;;;;;1.25;1.20;;;;;;;8.13;100.00;99527.25;5070406;28;20410;-72
2023/12/14 09:51:26;;;;;;;11.60;6.97;;;;;;;8.12;100.00;99525.50;5069849;28;20816;-73
2023/12/14 09:53:57;;;;;;;0.77;0.77;;;;;;;8.02;100.00;99484.63;5071410;28;20045;-74
2023/12/14 09:56:27;;;;;;;0.20;0.20;;;;;;;8.56;100.00;99600.25;5051077;28;20064;-73
2023/12/14 09:58:53;;;;;;;1.38;1.27;;;;;;;8.48;100.00;99555.00;5066584;28;20488;-72
2023/12/14 10:01:26;;;;;;;0.95;0.90;;;;;;;8.79;100.00;99578.34;5063093;28;20044;-73
2023/12/14 10:04:16;;;;;;;0.50;0.50;;;;;;;8.91;100.00;99587.88;5071490;28;20172;-74
2023/12/14 10:06:44;;;;;;;0.70;0.70;;;;;;;8.93;100.00;99584.38;5067934;28;20522;-74
2023/12/14 10:09:13;;;;;;;1.50;1.42;;;;;;;8.95;100.00;99585.22;5066463;28;20131;-75
2023/12/14 10:11:43;;;;;;;0.35;0.35;;;;;;;8.69;100.00;99553.16;5067310;28;20044;-73
2023/12/14 10:14:25;;;;;;;2.50;2.30;;;;;;;8.22;100.00;99497.63;5067546;28;20124;-73
2023/12/14 10:16:51;;;;;;;0.20;0.20;;;;;;;8.57;100.00;99577.59;5057359;28;20040;-73
2023/12/14 10:19:21;;;;;;;2.70;2.45;;;;;;;8.20;100.00;99513.28;5073557;28;20036;-74
2023/12/14 10:21:47;;;;;;;0.40;0.40;;;;;;;8.09;100.00;99514.22;5063578;28;20024;-74
2023/12/14 10:24:14;;;;;;;0.65;0.60;;;;;;;8.63;100.00;99583.66;5044382;28;20044;-73
2023/12/14 10:26:39;;;;;;;1.00;0.57;;;;;;;8.07;100.00;99484.63;5065463;28;20088;-73
2023/12/14 10:29:05;;;;;;;0.52;0.52;;;;;;;8.32;100.00;99511.50;5067626;28;20074;-73
2023/12/14 10:31:31;;;;;;;0.40;0.32;;;;;;;8.87;100.00;99577.44;5051445;28;20033;-73
2023/12/14 10:33:57;;;;;;;1.85;1.10;;;;;;;8.71;100.00;99560.09;5067425;28;20044;-73
2023/12/14 10:36:25;;;;;;;0.57;0.57;;;;;;;8.78;100.00;99597.53;5049146;28;20067;-74
2023/12/14 10:38:57;;;;;;;0.40;0.40;;;;;;;8.62;100.00;99571.47;5068190;28;20051;-74
2023/12/14 10:41:23;;;;;;;0.77;0.77;;;;;;;8.35;100.00;99528.00;5066560;28;20052;-74
2023/12/14 10:43:53;;;;;;;0.73;0.73;;;;;;;8.79;100.00;99588.81;5062615;28;20044;-72
2023/12/14 10:46:19;;;;;;;2.78;2.67;;;;;;;8.78;100.00;99569.66;5061809;28;20411;-73
2023/12/14 10:48:48;;;;;;;0.55;0.55;;;;;;;9.09;100.00;99599.09;5066891;28;20511;-73
2023/12/14 10:51:15;;;;;;;1.52;1.45;;;;;;;8.92;100.00;99600.97;5063821;28;20076;-73
2023/12/14 10:53:46;;;;;;;1.55;1.30;;;;;;;8.92;100.00;99600.97;5068574;28;20048;-72
2023/12/14 10:56:12;;;;;;;0.82;0.82;;;;;;;8.38;100.00;99508.81;5069394;28;20215;-73
2023/12/14 10:58:48;;;;;;;4.40;2.38;;;;;;;8.58;100.00;99522.69;5066843;28;20482;-74
2023/12/14 11:01:20;;;;;;;10.20;7.72;;;;;;;8.77;100.00;99565.28;5065315;28;20040;-73
2023/12/14 11:03:48;;;;;;;1.58;1.48;;;;;;;8.38;100.00;99546.31;5067269;28;20044;-72
2023/12/14 11:06:31;;;;;;;5.32;3.97;;;;;;;8.83;100.00;99642.88;5057985;28;20122;-73
2023/12/14 11:09:09;;;;;;;1.65;1.55;;;;;;;8.20;100.00;99577.75;5060017;28;20401;-72
2023/12/14 11:11:56;;;;;;;1.30;1.00;;;;;;;8.11;100.00;99554.28;5065129;28;20598;-73
2023/12/14 11:14:23;;;;;;;16.95;5.65;;;;;;;8.23;100.00;99551.59;5066218;28;20519;-72
2023/12/14 11:16:50;;;;;;;1.38;1.27;;;;;;;8.68;100.00;99625.50;5066574;28;20041;-71
2023/12/14 11:19:22;;;;;;;0.30;0.30;;;;;;;8.72;100.00;99629.84;5064567;28;20542;-71
2023/12/14 11:21:48;;;;;;;0.60;0.60;;;;;;;8.38;100.00;99566.34;5067141;28;20081;-73
2023/12/14 11:24:13;;;;;;;0.77;0.77;;;;;;;8.81;100.00;99634.16;5061110;28;20048;-72
2023/12/14 11:26:40;;;;;;;8.18;7.40;;;;;;;8.54;100.00;99633.41;5066125;28;20404;-73
2023/12/14 11:29:06;;;;;;;0.40;0.40;;;;;;;8.35;100.00;99602.94;5069920;28;20136;-72